sensor_id;sensor_type;location;lat;lon;timestamp;P1;durP1;ratioP1;P2;durP2;ratioP2
974;SDS011;6115;49.296;10.602;2023-02-18T00:03:27;5.00;;;3.80;;
974;SDS011;6115;49.296;10.602;2023-02-18T00:08:29;4.20;;;3.70;;
974;SDS011;6115;49.296;10.602;2023-02-18T00:13:29;3.97;;;3.47;;
974;SDS011;6115;49.296;10.602;2023-02-18T00:18:30;4.23;;;3.57;;
974;SDS011;6115;49.296;10.602;2023-02-18T00:23:31;3.47;;;3.10;;
974;SDS011;6115;49.296;10.602;2023-02-18T00:28:32;7.80;;;4.00;;
974;SDS011;6115;49.296;10.602;2023-02-18T00:33:33;4.37;;;3.40;;
974;SDS011;6115;49.296;10.602;2023-02-18T00:38:34;4.70;;;3.60;;
974;SDS011;6115;49.296;10.602;2023-02-18T00:43:35;4.83;;;3.03;;
974;SDS011;6115;49.296;10.602;2023-02-18T00:48:37;7.37;;;4.10;;
974;SDS011;6115;49.296;10.602;2023-02-18T00:53:38;7.70;;;4.60;;
974;SDS011;6115;49.296;10.602;2023-02-18T00:58:39;5.53;;;4.00;;
974;SDS011;6115;49.296;10.602;2023-02-18T01:03:41;4.47;;;4.00;;
974;SDS011;6115;49.296;10.602;2023-02-18T01:08:42;8.27;;;4.40;;
974;SDS011;6115;49.296;10.602;2023-02-18T01:13:44;6.50;;;4.70;;
974;SDS011;6115;49.296;10.602;2023-02-18T01:18:44;6.07;;;4.00;;
974;SDS011;6115;49.296;10.602;2023-02-18T01:23:45;4.50;;;3.63;;
974;SDS011;6115;49.296;10.602;2023-02-18T01:28:45;6.80;;;4.27;;
974;SDS011;6115;49.296;10.602;2023-02-18T01:33:46;5.73;;;4.00;;
974;SDS011;6115;49.296;10.602;2023-02-18T01:38:47;6.17;;;3.90;;
974;SDS011;6115;49.296;10.602;2023-02-18T01:43:47;4.50;;;3.20;;
974;SDS011;6115;49.296;10.602;2023-02-18T01:48:49;5.73;;;4.90;;
974;SDS011;6115;49.296;10.602;2023-02-18T01:54:01;6.63;;;5.27;;
974;SDS011;6115;49.296;10.602;2023-02-18T01:59:36;7.13;;;5.30;;
974;SDS011;6115;49.296;10.602;2023-02-18T02:04:39;7.23;;;4.57;;
974;SDS011;6115;49.296;10.602;2023-02-18T02:09:40;4.57;;;3.30;;
974;SDS011;6115;49.296;10.602;2023-02-18T02:47:38;6.10;;;4.80;;
974;SDS011;6115;49.296;10.602;2023-02-18T02:52:52;3.80;;;3.30;;
974;SDS011;6115;49.296;10.602;2023-02-18T02:57:59;7.97;;;4.80;;
974;SDS011;6115;49.296;10.602;2023-02-18T03:09:34;5.03;;;3.63;;
974;SDS011;6115;49.296;10.602;2023-02-18T03:14:34;4.00;;;3.13;;
974;SDS011;6115;49.296;10.602;2023-02-18T03:20:18;5.20;;;3.80;;
974;SDS011;6115;49.296;10.602;2023-02-18T03:25:30;4.53;;;3.70;;
974;SDS011;6115;49.296;10.602;2023-02-18T03:30:37;5.33;;;4.40;;
974;SDS011;6115;49.296;10.602;2023-02-18T03:35:45;5.90;;;4.50;;
974;SDS011;6115;49.296;10.602;2023-02-18T03:40:48;6.00;;;4.20;;
974;SDS011;6115;49.296;10.602;2023-02-18T03:45:49;5.23;;;3.27;;
974;SDS011;6115;49.296;10.602;2023-02-18T03:50:50;5.77;;;4.57;;
974;SDS011;6115;49.296;10.602;2023-02-18T03:55:51;4.90;;;3.47;;
974;SDS011;6115;49.296;10.602;2023-02-18T04:00:51;5.53;;;4.47;;
974;SDS011;6115;49.296;10.602;2023-02-18T04:05:52;6.07;;;4.17;;
974;SDS011;6115;49.296;10.602;2023-02-18T04:10:53;4.53;;;3.93;;
974;SDS011;6115;49.296;10.602;2023-02-18T04:15:53;4.63;;;3.63;;
974;SDS011;6115;49.296;10.602;2023-02-18T04:20:54;4.67;;;4.00;;
974;SDS011;6115;49.296;10.602;2023-02-18T04:25:55;4.30;;;3.90;;
974;SDS011;6115;49.296;10.602;2023-02-18T04:30:56;4.17;;;3.70;;
974;SDS011;6115;49.296;10.602;2023-02-18T04:35:56;6.10;;;3.73;;
974;SDS011;6115;49.296;10.602;2023-02-18T04:40:57;4.90;;;4.30;;
974;SDS011;6115;49.296;10.602;2023-02-18T04:45:57;4.97;;;3.70;;
974;SDS011;6115;49.296;10.602;2023-02-18T04:50:58;3.60;;;3.03;;
974;SDS011;6115;49.296;10.602;2023-02-18T04:55:59;5.40;;;4.77;;
974;SDS011;6115;49.296;10.602;2023-02-18T05:01:00;5.30;;;4.43;;
974;SDS011;6115;49.296;10.602;2023-02-18T05:06:02;5.43;;;3.90;;
974;SDS011;6115;49.296;10.602;2023-02-18T05:11:06;5.97;;;4.57;;
974;SDS011;6115;49.296;10.602;2023-02-18T05:16:07;6.47;;;5.80;;
974;SDS011;6115;49.296;10.602;2023-02-18T05:21:08;10.23;;;6.00;;
974;SDS011;6115;49.296;10.602;2023-02-18T05:26:10;7.60;;;5.67;;
974;SDS011;6115;49.296;10.602;2023-02-18T05:31:11;5.60;;;4.50;;
974;SDS011;6115;49.296;10.602;2023-02-18T05:36:12;6.63;;;5.10;;
974;SDS011;6115;49.296;10.602;2023-02-18T05:41:12;5.57;;;4.50;;
974;SDS011;6115;49.296;10.602;2023-02-18T05:46:13;4.50;;;3.60;;
974;SDS011;6115;49.296;10.602;2023-02-18T05:51:14;5.53;;;4.80;;
974;SDS011;6115;49.296;10.602;2023-02-18T05:56:14;5.80;;;4.77;;
974;SDS011;6115;49.296;10.602;2023-02-18T06:01:15;8.17;;;6.13;;
974;SDS011;6115;49.296;10.602;2023-02-18T06:06:15;5.80;;;4.60;;
974;SDS011;6115;49.296;10.602;2023-02-18T06:11:16;6.87;;;5.50;;
974;SDS011;6115;49.296;10.602;2023-02-18T06:16:16;7.20;;;6.10;;
974;SDS011;6115;49.296;10.602;2023-02-18T06:21:17;7.07;;;5.47;;
974;SDS011;6115;49.296;10.602;2023-02-18T06:26:18;9.47;;;6.57;;
974;SDS011;6115;49.296;10.602;2023-02-18T06:31:18;4.80;;;3.97;;
974;SDS011;6115;49.296;10.602;2023-02-18T06:36:19;10.00;;;7.40;;
974;SDS011;6115;49.296;10.602;2023-02-18T06:41:20;11.37;;;7.23;;
974;SDS011;6115;49.296;10.602;2023-02-18T06:46:20;9.70;;;7.50;;
974;SDS011;6115;49.296;10.602;2023-02-18T06:51:21;9.90;;;7.70;;
974;SDS011;6115;49.296;10.602;2023-02-18T06:56:21;10.80;;;7.10;;
974;SDS011;6115;49.296;10.602;2023-02-18T07:01:22;11.77;;;8.10;;
974;SDS011;6115;49.296;10.602;2023-02-18T07:06:22;9.97;;;7.80;;
974;SDS011;6115;49.296;10.602;2023-02-18T07:11:23;12.47;;;8.77;;
974;SDS011;6115;49.296;10.602;2023-02-18T07:16:23;8.97;;;6.60;;
974;SDS011;6115;49.296;10.602;2023-02-18T07:21:24;8.50;;;6.13;;
974;SDS011;6115;49.296;10.602;2023-02-18T07:26:25;7.53;;;5.67;;
974;SDS011;6115;49.296;10.602;2023-02-18T07:31:25;7.60;;;6.77;;
974;SDS011;6115;49.296;10.602;2023-02-18T07:36:26;7.13;;;6.07;;
974;SDS011;6115;49.296;10.602;2023-02-18T07:41:26;6.10;;;5.50;;
974;SDS011;6115;49.296;10.602;2023-02-18T07:46:27;7.80;;;6.40;;
974;SDS011;6115;49.296;10.602;2023-02-18T07:51:28;5.73;;;4.73;;
974;SDS011;6115;49.296;10.602;2023-02-18T07:56:28;7.03;;;5.33;;
974;SDS011;6115;49.296;10.602;2023-02-18T08:01:29;6.00;;;4.70;;
974;SDS011;6115;49.296;10.602;2023-02-18T08:06:40;4.37;;;3.97;;
974;SDS011;6115;49.296;10.602;2023-02-18T08:11:42;6.83;;;4.63;;
974;SDS011;6115;49.296;10.602;2023-02-18T08:16:43;9.07;;;6.00;;
974;SDS011;6115;49.296;10.602;2023-02-18T08:21:43;4.93;;;4.40;;
974;SDS011;6115;49.296;10.602;2023-02-18T08:26:44;5.80;;;4.10;;
974;SDS011;6115;49.296;10.602;2023-02-18T08:31:45;3.87;;;3.47;;
974;SDS011;6115;49.296;10.602;2023-02-18T08:36:45;3.70;;;3.30;;
974;SDS011;6115;49.296;10.602;2023-02-18T08:41:46;4.07;;;3.67;;
974;SDS011;6115;49.296;10.602;2023-02-18T08:46:46;3.97;;;3.50;;
974;SDS011;6115;49.296;10.602;2023-02-18T08:51:48;4.10;;;3.50;;
974;SDS011;6115;49.296;10.602;2023-02-18T08:56:52;3.30;;;3.00;;
974;SDS011;6115;49.296;10.602;2023-02-18T09:01:54;3.10;;;2.80;;
974;SDS011;6115;49.296;10.602;2023-02-18T09:06:55;3.20;;;2.90;;
974;SDS011;6115;49.296;10.602;2023-02-18T09:11:56;3.93;;;3.03;;
974;SDS011;6115;49.296;10.602;2023-02-18T09:16:56;3.20;;;2.80;;
974;SDS011;6115;49.296;10.602;2023-02-18T09:21:57;3.40;;;2.73;;
974;SDS011;6115;49.296;10.602;2023-02-18T09:26:58;3.27;;;2.97;;
974;SDS011;6115;49.296;10.602;2023-02-18T09:31:59;2.77;;;2.40;;
974;SDS011;6115;49.296;10.602;2023-02-18T09:37:00;3.80;;;2.90;;
974;SDS011;6115;49.296;10.602;2023-02-18T09:42:06;4.10;;;3.00;;
974;SDS011;6115;49.296;10.602;2023-02-18T09:47:12;3.77;;;2.40;;
974;SDS011;6115;49.296;10.602;2023-02-18T09:52:33;3.10;;;2.23;;
974;SDS011;6115;49.296;10.602;2023-02-18T10:03:21;6.00;;;2.93;;
974;SDS011;6115;49.296;10.602;2023-02-18T10:08:25;4.03;;;2.70;;
974;SDS011;6115;49.296;10.602;2023-02-18T10:13:29;6.80;;;2.67;;
974;SDS011;6115;49.296;10.602;2023-02-18T10:18:38;3.50;;;2.73;;
974;SDS011;6115;49.296;10.602;2023-02-18T10:23:43;4.60;;;2.83;;
974;SDS011;6115;49.296;10.602;2023-02-18T10:29:05;2.47;;;1.70;;
974;SDS011;6115;49.296;10.602;2023-02-18T10:50:29;3.00;;;2.40;;
974;SDS011;6115;49.296;10.602;2023-02-18T10:55:38;4.37;;;3.13;;
974;SDS011;6115;49.296;10.602;2023-02-18T11:00:40;3.83;;;2.73;;
974;SDS011;6115;49.296;10.602;2023-02-18T11:05:41;4.70;;;2.37;;
974;SDS011;6115;49.296;10.602;2023-02-18T11:10:43;3.83;;;2.60;;
974;SDS011;6115;49.296;10.602;2023-02-18T11:15:56;2.00;;;1.47;;
974;SDS011;6115;49.296;10.602;2023-02-18T11:20:58;4.00;;;2.50;;
974;SDS011;6115;49.296;10.602;2023-02-18T11:26:01;2.30;;;2.10;;
974;SDS011;6115;49.296;10.602;2023-02-18T11:31:04;3.80;;;2.10;;
974;SDS011;6115;49.296;10.602;2023-02-18T11:46:34;3.80;;;2.53;;
974;SDS011;6115;49.296;10.602;2023-02-18T11:51:35;3.37;;;2.77;;
974;SDS011;6115;49.296;10.602;2023-02-18T11:56:39;2.00;;;1.80;;
974;SDS011;6115;49.296;10.602;2023-02-18T12:01:44;2.87;;;2.30;;
974;SDS011;6115;49.296;10.602;2023-02-18T12:12:06;1.30;;;1.20;;
974;SDS011;6115;49.296;10.602;2023-02-18T12:22:45;2.13;;;1.87;;
974;SDS011;6115;49.296;10.602;2023-02-18T12:44:12;2.07;;;1.87;;
974;SDS011;6115;49.296;10.602;2023-02-18T13:00:41;3.07;;;2.37;;
974;SDS011;6115;49.296;10.602;2023-02-18T13:16:41;2.47;;;2.17;;
974;SDS011;6115;49.296;10.602;2023-02-18T13:21:45;1.97;;;1.80;;
974;SDS011;6115;49.296;10.602;2023-02-18T13:26:49;4.87;;;3.23;;
974;SDS011;6115;49.296;10.602;2023-02-18T13:48:24;2.33;;;1.93;;
974;SDS011;6115;49.296;10.602;2023-02-18T13:53:27;2.23;;;1.67;;
974;SDS011;6115;49.296;10.602;2023-02-18T13:58:40;1.80;;;1.53;;
974;SDS011;6115;49.296;10.602;2023-02-18T14:09:33;2.20;;;2.00;;
974;SDS011;6115;49.296;10.602;2023-02-18T14:19:28;2.63;;;2.33;;
974;SDS011;6115;49.296;10.602;2023-02-18T14:24:48;1.77;;;1.63;;
974;SDS011;6115;49.296;10.602;2023-02-18T14:29:54;7.23;;;2.20;;
974;SDS011;6115;49.296;10.602;2023-02-18T14:51:48;3.33;;;2.40;;
974;SDS011;6115;49.296;10.602;2023-02-18T15:01:55;2.43;;;1.93;;
974;SDS011;6115;49.296;10.602;2023-02-18T15:06:58;3.60;;;2.90;;
974;SDS011;6115;49.296;10.602;2023-02-18T15:12:04;3.60;;;2.90;;
974;SDS011;6115;49.296;10.602;2023-02-18T15:17:10;3.70;;;3.03;;
974;SDS011;6115;49.296;10.602;2023-02-18T15:22:18;5.53;;;2.50;;
974;SDS011;6115;49.296;10.602;2023-02-18T15:27:27;3.20;;;2.27;;
974;SDS011;6115;49.296;10.602;2023-02-18T15:32:30;4.40;;;4.00;;
974;SDS011;6115;49.296;10.602;2023-02-18T15:37:31;3.73;;;3.23;;
974;SDS011;6115;49.296;10.602;2023-02-18T15:42:32;5.27;;;3.80;;
974;SDS011;6115;49.296;10.602;2023-02-18T15:47:36;5.40;;;4.47;;
974;SDS011;6115;49.296;10.602;2023-02-18T15:52:43;4.10;;;3.50;;
974;SDS011;6115;49.296;10.602;2023-02-18T15:57:44;3.70;;;3.30;;
974;SDS011;6115;49.296;10.602;2023-02-18T16:02:54;3.10;;;2.53;;
974;SDS011;6115;49.296;10.602;2023-02-18T16:08:04;4.80;;;3.20;;
974;SDS011;6115;49.296;10.602;2023-02-18T16:13:12;3.17;;;2.43;;
974;SDS011;6115;49.296;10.602;2023-02-18T16:18:25;3.47;;;2.97;;
974;SDS011;6115;49.296;10.602;2023-02-18T16:23:39;3.47;;;3.13;;
974;SDS011;6115;49.296;10.602;2023-02-18T16:29:03;2.90;;;2.40;;
974;SDS011;6115;49.296;10.602;2023-02-18T16:34:11;3.77;;;2.03;;
974;SDS011;6115;49.296;10.602;2023-02-18T16:39:12;3.60;;;2.30;;
974;SDS011;6115;49.296;10.602;2023-02-18T16:44:12;4.00;;;2.83;;
974;SDS011;6115;49.296;10.602;2023-02-18T16:49:13;4.13;;;2.90;;
974;SDS011;6115;49.296;10.602;2023-02-18T16:54:15;3.60;;;3.20;;
974;SDS011;6115;49.296;10.602;2023-02-18T16:59:17;7.23;;;3.57;;
974;SDS011;6115;49.296;10.602;2023-02-18T17:04:17;3.70;;;3.30;;
974;SDS011;6115;49.296;10.602;2023-02-18T17:09:21;2.73;;;2.17;;
974;SDS011;6115;49.296;10.602;2023-02-18T17:14:22;3.70;;;3.20;;
974;SDS011;6115;49.296;10.602;2023-02-18T17:19:23;3.40;;;2.80;;
974;SDS011;6115;49.296;10.602;2023-02-18T17:24:23;5.67;;;4.23;;
974;SDS011;6115;49.296;10.602;2023-02-18T17:29:24;4.60;;;3.57;;
974;SDS011;6115;49.296;10.602;2023-02-18T17:34:25;4.97;;;3.60;;
974;SDS011;6115;49.296;10.602;2023-02-18T17:39:27;4.20;;;3.50;;
974;SDS011;6115;49.296;10.602;2023-02-18T17:44:28;5.43;;;3.90;;
974;SDS011;6115;49.296;10.602;2023-02-18T17:49:29;5.40;;;4.20;;
974;SDS011;6115;49.296;10.602;2023-02-18T17:54:29;3.77;;;2.93;;
974;SDS011;6115;49.296;10.602;2023-02-18T17:59:30;4.23;;;3.00;;
974;SDS011;6115;49.296;10.602;2023-02-18T18:04:30;4.00;;;3.13;;
974;SDS011;6115;49.296;10.602;2023-02-18T18:09:31;5.10;;;3.10;;
974;SDS011;6115;49.296;10.602;2023-02-18T18:14:32;6.77;;;5.30;;
974;SDS011;6115;49.296;10.602;2023-02-18T18:19:32;6.27;;;4.83;;
974;SDS011;6115;49.296;10.602;2023-02-18T18:24:33;5.20;;;4.20;;
974;SDS011;6115;49.296;10.602;2023-02-18T18:29:34;7.60;;;5.57;;
974;SDS011;6115;49.296;10.602;2023-02-18T18:34:34;5.63;;;4.83;;
974;SDS011;6115;49.296;10.602;2023-02-18T18:39:35;7.63;;;5.53;;
974;SDS011;6115;49.296;10.602;2023-02-18T18:44:35;6.30;;;4.40;;
974;SDS011;6115;49.296;10.602;2023-02-18T18:49:36;7.00;;;5.20;;
974;SDS011;6115;49.296;10.602;2023-02-18T18:54:37;7.17;;;5.40;;
974;SDS011;6115;49.296;10.602;2023-02-18T18:59:41;10.97;;;7.33;;
974;SDS011;6115;49.296;10.602;2023-02-18T19:04:41;7.77;;;6.03;;
974;SDS011;6115;49.296;10.602;2023-02-18T19:09:42;9.00;;;5.57;;
974;SDS011;6115;49.296;10.602;2023-02-18T19:14:42;7.07;;;5.40;;
974;SDS011;6115;49.296;10.602;2023-02-18T19:19:43;8.87;;;6.53;;
974;SDS011;6115;49.296;10.602;2023-02-18T19:24:43;7.80;;;6.47;;
974;SDS011;6115;49.296;10.602;2023-02-18T19:29:44;11.23;;;5.83;;
974;SDS011;6115;49.296;10.602;2023-02-18T19:34:47;6.20;;;5.23;;
974;SDS011;6115;49.296;10.602;2023-02-18T19:39:47;7.20;;;5.90;;
974;SDS011;6115;49.296;10.602;2023-02-18T19:44:48;7.27;;;6.07;;
974;SDS011;6115;49.296;10.602;2023-02-18T19:49:49;7.10;;;5.63;;
974;SDS011;6115;49.296;10.602;2023-02-18T19:54:50;6.50;;;4.30;;
974;SDS011;6115;49.296;10.602;2023-02-18T19:59:50;6.87;;;4.70;;
974;SDS011;6115;49.296;10.602;2023-02-18T20:04:51;7.67;;;6.20;;
974;SDS011;6115;49.296;10.602;2023-02-18T20:09:53;6.47;;;5.57;;
974;SDS011;6115;49.296;10.602;2023-02-18T20:14:54;7.97;;;5.80;;
974;SDS011;6115;49.296;10.602;2023-02-18T20:19:55;8.00;;;5.80;;
974;SDS011;6115;49.296;10.602;2023-02-18T20:24:55;8.10;;;6.13;;
974;SDS011;6115;49.296;10.602;2023-02-18T20:29:56;7.83;;;6.17;;
974;SDS011;6115;49.296;10.602;2023-02-18T20:34:56;8.60;;;6.07;;
974;SDS011;6115;49.296;10.602;2023-02-18T20:39:57;9.20;;;5.90;;
974;SDS011;6115;49.296;10.602;2023-02-18T20:44:58;6.00;;;5.40;;
974;SDS011;6115;49.296;10.602;2023-02-18T20:49:59;7.30;;;5.97;;
974;SDS011;6115;49.296;10.602;2023-02-18T20:55:00;6.40;;;5.17;;
974;SDS011;6115;49.296;10.602;2023-02-18T21:00:00;7.60;;;6.03;;
974;SDS011;6115;49.296;10.602;2023-02-18T21:05:01;7.00;;;6.13;;
974;SDS011;6115;49.296;10.602;2023-02-18T21:10:01;7.17;;;5.77;;
974;SDS011;6115;49.296;10.602;2023-02-18T21:15:03;7.17;;;4.77;;
974;SDS011;6115;49.296;10.602;2023-02-18T21:20:03;6.67;;;4.57;;
974;SDS011;6115;49.296;10.602;2023-02-18T21:25:05;8.07;;;4.57;;
974;SDS011;6115;49.296;10.602;2023-02-18T21:30:06;6.87;;;5.27;;
974;SDS011;6115;49.296;10.602;2023-02-18T21:35:08;6.07;;;4.93;;
974;SDS011;6115;49.296;10.602;2023-02-18T21:40:08;7.70;;;5.30;;
974;SDS011;6115;49.296;10.602;2023-02-18T21:45:10;6.67;;;4.50;;
974;SDS011;6115;49.296;10.602;2023-02-18T21:50:15;8.33;;;5.80;;
974;SDS011;6115;49.296;10.602;2023-02-18T21:55:16;7.60;;;5.97;;
974;SDS011;6115;49.296;10.602;2023-02-18T22:00:17;9.67;;;6.23;;
974;SDS011;6115;49.296;10.602;2023-02-18T22:05:17;6.33;;;4.90;;
974;SDS011;6115;49.296;10.602;2023-02-18T22:10:18;10.53;;;6.73;;
974;SDS011;6115;49.296;10.602;2023-02-18T22:15:18;4.60;;;2.73;;
974;SDS011;6115;49.296;10.602;2023-02-18T22:20:19;6.47;;;5.43;;
974;SDS011;6115;49.296;10.602;2023-02-18T22:25:19;6.90;;;5.17;;
974;SDS011;6115;49.296;10.602;2023-02-18T22:30:20;6.77;;;5.80;;
974;SDS011;6115;49.296;10.602;2023-02-18T22:35:20;5.27;;;3.70;;
974;SDS011;6115;49.296;10.602;2023-02-18T22:40:21;8.80;;;5.83;;
974;SDS011;6115;49.296;10.602;2023-02-18T22:45:21;7.57;;;5.17;;
974;SDS011;6115;49.296;10.602;2023-02-18T22:50:22;6.77;;;5.27;;
974;SDS011;6115;49.296;10.602;2023-02-18T22:55:22;6.40;;;5.17;;
974;SDS011;6115;49.296;10.602;2023-02-18T23:00:23;6.47;;;4.70;;
974;SDS011;6115;49.296;10.602;2023-02-18T23:05:24;5.87;;;4.70;;
974;SDS011;6115;49.296;10.602;2023-02-18T23:10:25;6.43;;;4.63;;
974;SDS011;6115;49.296;10.602;2023-02-18T23:15:25;5.40;;;4.30;;
974;SDS011;6115;49.296;10.602;2023-02-18T23:20:26;6.10;;;4.63;;
974;SDS011;6115;49.296;10.602;2023-02-18T23:25:46;4.80;;;4.00;;
974;SDS011;6115;49.296;10.602;2023-02-18T23:30:47;6.93;;;5.07;;
974;SDS011;6115;49.296;10.602;2023-02-18T23:35:47;7.13;;;5.10;;
974;SDS011;6115;49.296;10.602;2023-02-18T23:40:48;3.00;;;2.10;;
974;SDS011;6115;49.296;10.602;2023-02-18T23:45:48;6.00;;;5.23;;
974;SDS011;6115;49.296;10.602;2023-02-18T23:50:49;4.27;;;3.60;;
974;SDS011;6115;49.296;10.602;2023-02-18T23:56:12;6.10;;;5.27;;
